< < Back
Terminal Aerodrome Forecast


Current Version              Previous Versions:   1  2  3  4  5  6  7  8  9  

Terminal Aerodrome Forecast

180
FTUS44 KMOB 200500
TAFPNS
TAF
KPNS 200526Z 2006/2106 VRB03KT P6SM FEW050 SCT250
     FM201500 29007KT P6SM VCTS SCT035CB SCT250=



Latest METAR

866
SAUS70 KWBC 210000 RRP
MTRPNS
METAR KPNS 202353Z 23012KT 10SM CLR 30/23 A3004 RMK AO2 LTG DSNT NW
SLP172 T03000228 10328 20300 53001


USA.gov is the U.S. government's official web portal to all federal, state and local government web resources and services.